createdAt,value
2022-07-28T00:02:09.254Z,100123.44
2022-07-28T00:04:38.464Z,100120.16
2022-07-28T00:07:07.062Z,100120.91
2022-07-28T00:09:36.326Z,100131.97
2022-07-28T00:12:05.669Z,100132.47
2022-07-28T00:14:34.774Z,100134.72
2022-07-28T00:17:03.418Z,100133.25
2022-07-28T00:19:33.717Z,100139.47
2022-07-28T00:22:02.880Z,100136.53
2022-07-28T00:24:32.232Z,100139.56
2022-07-28T00:27:01.606Z,100144.56
2022-07-28T00:29:49.770Z,100139.66
2022-07-28T00:32:20.710Z,100139.53
2022-07-28T00:34:53.551Z,100127.63
2022-07-28T00:37:22.415Z,100130.41
2022-07-28T00:39:54.207Z,100126.13
2022-07-28T00:42:23.417Z,100138.56
2022-07-28T00:44:52.154Z,100139.81
2022-07-28T00:47:20.961Z,100141.81
2022-07-28T00:49:51.628Z,100137.75
2022-07-28T00:52:20.960Z,100143.47
2022-07-28T00:54:50.518Z,100143.22
2022-07-28T00:57:21.286Z,100154.22
2022-07-28T00:59:50.424Z,100158.19
2022-07-28T01:02:19.418Z,100155.94
2022-07-28T01:04:50.557Z,100158.06
2022-07-28T01:07:30.903Z,100157.19
2022-07-28T01:10:07.671Z,100156.09
2022-07-28T01:12:50.565Z,100154.03
2022-07-28T01:15:31.520Z,100152.75
2022-07-28T01:18:07.203Z,100154.03
2022-07-28T01:20:41.278Z,100156.88
2022-07-28T01:23:30.596Z,100156.22
2022-07-28T01:26:15.141Z,100151.78
2022-07-28T01:29:00.748Z,100156.97
2022-07-28T01:31:38.171Z,100148.00
2022-07-28T01:34:10.756Z,100152.28
2022-07-28T01:36:44.524Z,100148.97
2022-07-28T01:39:15.438Z,100155.06
2022-07-28T01:41:46.627Z,100147.38
2022-07-28T01:44:21.496Z,100156.44
2022-07-28T01:46:58.961Z,100154.06
2022-07-28T01:49:30.999Z,100152.44
2022-07-28T01:52:02.588Z,100156.22
2022-07-28T01:54:33.622Z,100154.72
2022-07-28T01:57:03.474Z,100162.84
2022-07-28T01:59:33.386Z,100156.88
2022-07-28T02:02:04.559Z,100158.78
2022-07-28T02:04:34.618Z,100158.06
2022-07-28T02:07:05.849Z,100157.44
2022-07-28T02:09:36.845Z,100154.06
2022-07-28T02:12:07.664Z,100155.75
2022-07-28T02:14:38.539Z,100155.13
2022-07-28T02:17:12.715Z,100155.50
2022-07-28T02:19:43.218Z,100152.47
2022-07-28T02:22:13.761Z,100156.63
2022-07-28T02:24:44.863Z,100159.44
2022-07-28T02:27:23.882Z,100162.53
2022-07-28T02:29:58.617Z,100163.66
2022-07-28T02:32:33.627Z,100163.09
2022-07-28T02:35:09.737Z,100167.69
2022-07-28T02:37:41.506Z,100172.41
2022-07-28T02:40:13.909Z,100176.41
2022-07-28T02:42:45.504Z,100174.28
2022-07-28T02:45:16.702Z,100171.06
2022-07-28T02:47:50.343Z,100174.06
2022-07-28T02:50:23.985Z,100187.63
2022-07-28T02:52:55.870Z,100194.34
2022-07-28T02:55:26.365Z,100191.38
2022-07-28T02:57:56.958Z,100190.09
2022-07-28T03:00:26.311Z,100196.59
2022-07-28T03:02:58.593Z,100195.28
2022-07-28T03:05:28.996Z,100202.78
2022-07-28T03:07:59.688Z,100201.69
2022-07-28T03:10:33.491Z,100205.84
2022-07-28T03:13:05.521Z,100212.69
2022-07-28T03:15:35.499Z,100223.72
2022-07-28T03:18:06.637Z,100221.56
2022-07-28T03:20:36.282Z,100220.00
2022-07-28T03:23:05.772Z,100225.47
2022-07-28T03:25:42.893Z,100225.88
2022-07-28T03:28:17.954Z,100226.91
2022-07-28T03:30:49.732Z,100232.16
2022-07-28T03:33:20.722Z,100232.16
2022-07-28T03:35:53.445Z,100230.47
2022-07-28T03:38:25.235Z,100232.16
2022-07-28T03:40:55.653Z,100237.50
2022-07-28T03:43:28.755Z,100243.00
2022-07-28T03:45:58.279Z,100240.59
2022-07-28T03:48:31.699Z,100246.88
2022-07-28T03:51:00.741Z,100241.72
2022-07-28T03:53:30.896Z,100246.88
2022-07-28T03:55:59.772Z,100251.13
2022-07-28T03:58:29.866Z,100250.78
2022-07-28T04:00:59.282Z,100257.19
2022-07-28T04:03:42.479Z,100258.44
2022-07-28T04:06:18.358Z,100254.53
2022-07-28T04:08:48.149Z,100266.47
2022-07-28T04:11:17.387Z,100256.47
2022-07-28T04:13:49.163Z,100261.47
2022-07-28T04:16:18.214Z,100262.25
2022-07-28T04:18:47.663Z,100257.53
2022-07-28T04:21:18.377Z,100259.91
2022-07-28T04:23:51.058Z,100261.09
2022-07-28T04:26:20.936Z,100258.91
2022-07-28T04:28:50.251Z,100267.19
2022-07-28T04:31:19.230Z,100267.41
2022-07-28T04:33:48.684Z,100262.50
2022-07-28T04:36:19.949Z,100264.53
2022-07-28T04:38:49.249Z,100265.72
2022-07-28T04:41:18.742Z,100271.53
2022-07-28T04:43:47.962Z,100267.44
2022-07-28T04:46:17.370Z,100266.94
2022-07-28T04:48:46.489Z,100268.00
2022-07-28T04:51:16.066Z,100270.03
2022-07-28T04:53:47.701Z,100271.09
2022-07-28T04:56:17.237Z,100267.81
2022-07-28T04:58:46.478Z,100268.88
2022-07-28T05:01:17.512Z,100273.34
2022-07-28T05:03:46.611Z,100270.72
2022-07-28T05:06:18.851Z,100272.72
2022-07-28T05:08:50.282Z,100276.59
2022-07-28T05:11:19.710Z,100272.66
2022-07-28T05:13:50.059Z,100277.56
2022-07-28T05:16:20.753Z,100272.84
2022-07-28T05:18:50.101Z,100278.31
2022-07-28T05:21:22.364Z,100281.16
2022-07-28T05:23:52.957Z,100284.50
2022-07-28T05:26:27.305Z,100276.84
2022-07-28T05:28:57.514Z,100286.72
2022-07-28T05:31:26.465Z,100281.75
2022-07-28T05:33:57.967Z,100290.16
2022-07-28T05:36:27.041Z,100284.78
2022-07-28T05:39:01.414Z,100285.09
2022-07-28T05:41:30.625Z,100289.06
2022-07-28T05:44:01.697Z,100291.28
2022-07-28T05:46:33.538Z,100293.41
2022-07-28T05:49:03.644Z,100296.28
2022-07-28T05:51:41.298Z,100294.28
2022-07-28T05:54:12.655Z,100298.13
2022-07-28T05:56:50.045Z,100299.69
2022-07-28T05:59:19.520Z,100308.06
2022-07-28T06:01:49.142Z,100313.50
2022-07-28T06:04:28.331Z,100310.19
2022-07-28T06:06:57.703Z,100307.03
2022-07-28T06:09:28.255Z,100311.19
2022-07-28T06:11:57.250Z,100307.63
2022-07-28T06:14:26.146Z,100315.66
2022-07-28T06:16:54.806Z,100323.91
2022-07-28T06:19:23.581Z,100323.81
2022-07-28T06:21:53.823Z,100325.44
2022-07-28T06:24:22.578Z,100326.94
2022-07-28T06:26:53.566Z,100328.66
2022-07-28T06:29:23.505Z,100329.25
2022-07-28T06:31:52.344Z,100334.97
2022-07-28T06:34:23.011Z,100324.56
2022-07-28T06:36:52.193Z,100327.00
2022-07-28T06:39:21.140Z,100336.06
2022-07-28T06:41:50.383Z,100337.75
2022-07-28T06:44:23.739Z,100335.97
2022-07-28T06:46:54.313Z,100340.56
2022-07-28T06:49:24.517Z,100344.06
2022-07-28T06:51:53.926Z,100345.97
2022-07-28T06:54:22.655Z,100349.91
2022-07-28T06:56:54.270Z,100349.41
2022-07-28T06:59:25.492Z,100355.81
2022-07-28T07:01:55.756Z,100357.84
2022-07-28T07:04:24.414Z,100350.31
2022-07-28T07:06:55.145Z,100355.91
2022-07-28T07:09:24.349Z,100353.41
2022-07-28T07:11:53.373Z,100359.09
2022-07-28T07:14:22.255Z,100361.97
2022-07-28T07:16:52.366Z,100366.66
2022-07-28T07:19:21.994Z,100354.50
2022-07-28T07:21:51.133Z,100357.78
2022-07-28T07:24:23.558Z,100361.41
2022-07-28T07:26:52.416Z,100361.13
2022-07-28T07:29:23.138Z,100357.22
2022-07-28T07:31:53.875Z,100363.97
2022-07-28T07:34:22.834Z,100358.31
2022-07-28T07:36:51.826Z,100350.25
2022-07-28T07:39:20.746Z,100365.84
2022-07-28T07:41:50.151Z,100361.81
2022-07-28T07:44:19.278Z,100359.81
2022-07-28T07:46:49.067Z,100362.63
2022-07-28T07:49:22.527Z,100365.81
2022-07-28T07:51:51.371Z,100372.69
2022-07-28T07:54:21.678Z,100366.41
2022-07-28T07:56:50.572Z,100371.63
2022-07-28T07:59:19.500Z,100359.25
2022-07-28T08:01:54.409Z,100370.03
2022-07-28T08:04:25.551Z,100370.31
2022-07-28T08:06:54.926Z,100372.16
2022-07-28T08:09:23.982Z,100368.09
2022-07-28T08:11:53.179Z,100382.44
2022-07-28T08:14:21.929Z,100374.00
2022-07-28T08:16:50.767Z,100376.44
2022-07-28T08:19:21.392Z,100362.50
2022-07-28T08:21:53.046Z,100372.91
2022-07-28T08:24:29.024Z,100358.13
2022-07-28T08:27:02.827Z,100360.47
2022-07-28T08:29:32.024Z,100367.34
2022-07-28T08:32:01.621Z,100367.50
2022-07-28T08:34:33.770Z,100368.56
2022-07-28T08:39:36.235Z,100375.13
2022-07-28T08:42:08.423Z,100369.59
2022-07-28T08:44:47.276Z,100376.50
2022-07-28T08:47:17.602Z,100383.66
2022-07-28T08:49:50.000Z,100367.06
2022-07-28T08:52:22.329Z,100369.22
2022-07-28T08:54:52.171Z,100370.34
2022-07-28T08:57:24.169Z,100374.25
2022-07-28T08:59:53.842Z,100374.63
2022-07-28T09:02:26.427Z,100375.78
2022-07-28T09:04:56.156Z,100380.69
2022-07-28T09:07:27.814Z,100378.25
2022-07-28T09:09:57.407Z,100379.47
2022-07-28T09:12:31.821Z,100388.69
2022-07-28T09:15:03.406Z,100373.81
2022-07-28T09:17:33.901Z,100371.31
2022-07-28T09:20:06.256Z,100369.59
2022-07-28T09:22:57.993Z,100374.56
2022-07-28T09:25:27.424Z,100376.22
2022-07-28T09:27:56.833Z,100377.31
2022-07-28T09:30:34.096Z,100387.78
2022-07-28T09:33:40.975Z,100379.50
2022-07-28T09:36:16.010Z,100385.38
2022-07-28T09:38:46.773Z,100379.69
2022-07-28T09:41:19.070Z,100383.47
2022-07-28T09:43:54.068Z,100374.66
2022-07-28T09:46:25.504Z,100385.66
2022-07-28T09:48:58.115Z,100377.75
2022-07-28T09:51:29.659Z,100376.88
2022-07-28T09:54:14.818Z,100375.38
2022-07-28T09:56:45.224Z,100375.22
2022-07-28T09:59:16.178Z,100381.09
2022-07-28T10:01:54.292Z,100380.09
2022-07-28T10:04:34.503Z,100381.88
2022-07-28T10:07:07.287Z,100373.19
2022-07-28T10:09:39.181Z,100377.59
2022-07-28T10:12:19.802Z,100379.78
2022-07-28T10:14:50.552Z,100369.56
2022-07-28T10:17:28.268Z,100365.84
2022-07-28T10:19:58.935Z,100365.00
2022-07-28T10:22:30.562Z,100368.53
2022-07-28T10:25:03.696Z,100356.03
2022-07-28T10:27:33.999Z,100359.19
2022-07-28T10:30:05.099Z,100351.63
2022-07-28T10:32:39.828Z,100360.97
2022-07-28T10:35:12.235Z,100357.09
2022-07-28T10:37:48.140Z,100348.31
2022-07-28T10:40:23.746Z,100356.03
2022-07-28T10:42:54.655Z,100349.97
2022-07-28T10:45:41.957Z,100344.38
2022-07-28T10:48:14.349Z,100351.13
2022-07-28T10:50:43.345Z,100354.34
2022-07-28T10:53:20.733Z,100350.63
2022-07-28T10:55:56.589Z,100348.47
2022-07-28T10:58:39.897Z,100348.47
2022-07-28T11:01:26.738Z,100354.84
2022-07-28T11:03:59.555Z,100341.03
2022-07-28T11:06:30.993Z,100340.88
2022-07-28T11:09:21.983Z,100340.84
2022-07-28T11:11:54.683Z,100339.19
2022-07-28T11:14:37.598Z,100343.25
2022-07-28T11:17:33.621Z,100336.47
2022-07-28T11:22:54.226Z,100331.75
2022-07-28T11:25:23.223Z,100323.00
2022-07-28T11:28:06.539Z,100322.97
2022-07-28T11:30:55.255Z,100329.19
2022-07-28T11:33:27.710Z,100326.19
2022-07-28T11:35:59.314Z,100324.91
2022-07-28T11:38:29.916Z,100327.22
2022-07-28T11:40:59.503Z,100322.75
2022-07-28T11:43:38.886Z,100325.53
2022-07-28T11:46:29.333Z,100318.38
2022-07-28T11:49:26.251Z,100314.06
2022-07-28T11:52:15.350Z,100318.72
2022-07-28T11:54:51.260Z,100315.00
2022-07-28T11:57:21.476Z,100317.53
2022-07-28T11:59:54.817Z,100317.03
2022-07-28T12:02:26.211Z,100317.50
2022-07-28T12:05:04.275Z,100304.50
2022-07-28T12:07:36.071Z,100313.38
2022-07-28T12:10:53.505Z,100307.97
2022-07-28T12:13:13.806Z,100296.97
2022-07-28T12:15:52.346Z,100307.09
2022-07-28T12:18:21.108Z,100301.91
2022-07-28T12:20:55.449Z,100304.31
2022-07-28T12:23:44.136Z,100300.84
2022-07-28T12:26:31.740Z,100307.22
2022-07-28T12:29:01.433Z,100306.50
2022-07-28T12:31:33.432Z,100305.66
2022-07-28T12:34:02.434Z,100308.56
2022-07-28T12:36:31.800Z,100310.53
2022-07-28T12:39:01.618Z,100311.38
2022-07-28T12:41:34.857Z,100317.47
2022-07-28T12:44:06.585Z,100317.97
2022-07-28T12:46:36.950Z,100309.25
2022-07-28T12:49:05.864Z,100309.25
2022-07-28T12:51:36.636Z,100311.38
2022-07-28T12:54:07.817Z,100308.00
2022-07-28T12:56:47.130Z,100304.50
2022-07-28T12:59:18.544Z,100298.34
2022-07-28T13:01:50.580Z,100300.63
2022-07-28T13:04:42.718Z,100305.75
2022-07-28T13:07:14.304Z,100305.47
2022-07-28T13:09:53.269Z,100302.00
2022-07-28T13:12:31.810Z,100302.75
2022-07-28T13:15:07.214Z,100294.47
2022-07-28T13:17:53.570Z,100295.19
2022-07-28T13:20:24.405Z,100294.00
2022-07-28T13:22:56.399Z,100294.88
2022-07-28T13:25:25.569Z,100300.66
2022-07-28T13:27:55.640Z,100303.69
2022-07-28T13:30:24.922Z,100302.16
2022-07-28T13:32:56.783Z,100308.53
2022-07-28T13:35:26.440Z,100294.97
2022-07-28T13:37:55.262Z,100305.13
2022-07-28T13:40:24.330Z,100307.16
2022-07-28T13:42:57.120Z,100305.56
2022-07-28T13:45:30.179Z,100298.13
2022-07-28T13:48:00.746Z,100304.19
2022-07-28T13:50:30.282Z,100304.84
2022-07-28T13:52:59.510Z,100303.34
2022-07-28T13:55:28.454Z,100300.50
2022-07-28T13:57:57.035Z,100305.19
2022-07-28T14:00:25.834Z,100305.44
2022-07-28T14:02:56.150Z,100302.75
2022-07-28T14:05:32.108Z,100302.09
2022-07-28T14:08:02.837Z,100303.50
2022-07-28T14:10:31.578Z,100301.84
2022-07-28T14:13:01.600Z,100306.22
2022-07-28T14:15:30.148Z,100302.13
2022-07-28T14:17:59.362Z,100307.44
2022-07-28T14:20:29.793Z,100304.69
2022-07-28T14:22:59.168Z,100306.31
2022-07-28T14:25:27.955Z,100296.41
2022-07-28T14:27:57.069Z,100303.09
2022-07-28T14:30:27.485Z,100307.94
2022-07-28T14:32:58.379Z,100302.75
2022-07-28T14:35:29.545Z,100304.03
2022-07-28T14:38:42.460Z,100308.00
2022-07-28T14:40:47.728Z,100307.66
2022-07-28T14:43:16.721Z,100295.00
2022-07-28T14:45:51.420Z,100295.38
2022-07-28T14:48:35.005Z,100288.81
2022-07-28T14:51:06.381Z,100307.41
2022-07-28T14:53:35.164Z,100304.09
2022-07-28T14:56:14.428Z,100305.59
2022-07-28T14:58:43.684Z,100303.47
2022-07-28T15:01:12.577Z,100303.53
2022-07-28T15:03:43.494Z,100298.34
2022-07-28T15:06:13.842Z,100297.38
2022-07-28T15:08:43.108Z,100303.50
2022-07-28T15:11:11.782Z,100302.66
2022-07-28T15:13:40.768Z,100306.13
2022-07-28T15:16:10.106Z,100308.72
2022-07-28T15:18:38.961Z,100301.97
2022-07-28T15:21:08.687Z,100298.41
2022-07-28T15:23:40.327Z,100292.31
2022-07-28T15:26:10.469Z,100294.41
2022-07-28T15:28:39.490Z,100294.16
2022-07-28T15:31:08.989Z,100289.72
2022-07-28T15:33:47.836Z,100282.41
2022-07-28T15:36:17.495Z,100285.56
2022-07-28T15:38:48.964Z,100278.50
2022-07-28T15:41:20.630Z,100281.69
2022-07-28T15:43:49.822Z,100287.66
2022-07-28T15:46:18.659Z,100284.06
2022-07-28T15:48:48.239Z,100287.06
2022-07-28T15:51:18.549Z,100277.63
2022-07-28T15:53:56.535Z,100277.94
2022-07-28T15:56:26.493Z,100280.78
2022-07-28T15:58:55.435Z,100272.88
2022-07-28T16:01:24.567Z,100281.56
2022-07-28T16:03:53.629Z,100281.22
2022-07-28T16:06:23.386Z,100273.72
2022-07-28T16:08:53.919Z,100274.78
2022-07-28T16:11:22.671Z,100275.94
2022-07-28T16:13:52.576Z,100284.25
2022-07-28T16:16:21.450Z,100280.09
2022-07-28T16:18:50.221Z,100282.97
2022-07-28T16:21:19.010Z,100273.03
2022-07-28T16:23:47.603Z,100288.25
2022-07-28T16:26:17.548Z,100282.81
2022-07-28T16:28:47.200Z,100279.88
2022-07-28T16:31:16.822Z,100289.06
2022-07-28T16:33:46.444Z,100295.34
2022-07-28T16:36:15.437Z,100279.84
2022-07-28T16:38:44.783Z,100283.84
2022-07-28T16:41:16.201Z,100282.44
2022-07-28T16:43:46.882Z,100287.41
2022-07-28T16:46:17.330Z,100285.00
2022-07-28T16:48:46.380Z,100283.09
2022-07-28T16:51:15.067Z,100280.97
2022-07-28T16:53:44.006Z,100285.41
2022-07-28T16:56:17.549Z,100288.63
2022-07-28T16:58:49.404Z,100286.69
2022-07-28T17:01:18.349Z,100285.44
2022-07-28T17:03:48.428Z,100288.16
2022-07-28T17:06:17.390Z,100294.66
2022-07-28T17:08:46.119Z,100282.69
2022-07-28T17:11:14.708Z,100290.88
2022-07-28T17:13:45.398Z,100291.47
2022-07-28T17:16:15.979Z,100290.19
2022-07-28T17:18:45.870Z,100293.59
2022-07-28T17:21:14.547Z,100298.50
2022-07-28T17:23:43.334Z,100297.94
2022-07-28T17:29:01.905Z,100289.91
2022-07-28T17:31:33.882Z,100302.06
2022-07-28T17:34:02.674Z,100305.28
2022-07-28T17:36:35.437Z,100303.31
2022-07-28T17:39:07.170Z,100296.84
2022-07-28T17:41:36.000Z,100303.75
2022-07-28T17:44:05.877Z,100307.13
2022-07-28T17:46:36.480Z,100312.44
2022-07-28T17:49:08.246Z,100298.31
2022-07-28T17:51:37.648Z,100303.53
2022-07-28T17:54:06.648Z,100302.25
2022-07-28T17:56:37.744Z,100305.75
2022-07-28T17:59:08.765Z,100304.03
2022-07-28T18:01:42.386Z,100303.97
2022-07-28T18:04:14.487Z,100306.91
2022-07-28T18:06:44.915Z,100304.47
2022-07-28T18:09:14.993Z,100309.44
2022-07-28T18:11:56.784Z,100309.91
2022-07-28T18:14:28.350Z,100313.03
2022-07-28T18:16:59.470Z,100308.03
2022-07-28T18:19:29.243Z,100300.59
2022-07-28T18:21:58.427Z,100305.75
2022-07-28T18:24:27.299Z,100319.63
2022-07-28T18:26:57.557Z,100316.38
2022-07-28T18:29:38.408Z,100317.28
2022-07-28T18:32:12.456Z,100320.81
2022-07-28T18:34:41.825Z,100318.66
2022-07-28T18:37:10.679Z,100320.41
2022-07-28T18:39:39.523Z,100324.78
2022-07-28T18:42:08.659Z,100326.97
2022-07-28T18:44:37.411Z,100327.34
2022-07-28T18:47:06.541Z,100332.56
2022-07-28T18:49:37.288Z,100327.84
2022-07-28T18:52:07.130Z,100328.94
2022-07-28T18:54:37.231Z,100338.59
2022-07-28T18:57:05.886Z,100332.53
2022-07-28T18:59:37.783Z,100344.63
2022-07-28T19:02:11.008Z,100344.59
2022-07-28T19:04:41.987Z,100337.06
2022-07-28T19:07:11.304Z,100342.91
2022-07-28T19:09:40.306Z,100342.47
2022-07-28T19:12:09.857Z,100342.19
2022-07-28T19:14:39.007Z,100344.69
2022-07-28T19:17:09.040Z,100353.13
2022-07-28T19:19:37.985Z,100350.16
2022-07-28T19:22:09.876Z,100352.16
2022-07-28T19:24:39.156Z,100347.16
2022-07-28T19:27:08.089Z,100342.72
2022-07-28T19:29:37.378Z,100346.03
2022-07-28T19:32:08.225Z,100352.75
2022-07-28T19:34:36.908Z,100360.19
2022-07-28T19:37:07.321Z,100354.47
2022-07-28T19:39:38.803Z,100354.25
2022-07-28T19:42:15.441Z,100349.38
2022-07-28T19:44:46.449Z,100347.88
2022-07-28T19:47:15.641Z,100347.09
2022-07-28T19:49:44.750Z,100343.47
2022-07-28T19:52:15.007Z,100357.34
2022-07-28T19:54:43.503Z,100357.97
2022-07-28T19:57:20.154Z,100362.09
2022-07-28T19:59:48.950Z,100366.94
2022-07-28T20:02:17.788Z,100371.78
2022-07-28T20:04:46.660Z,100364.53
2022-07-28T20:07:16.787Z,100366.09
2022-07-28T20:09:46.190Z,100369.69
2022-07-28T20:12:15.189Z,100371.22
2022-07-28T20:14:44.498Z,100383.25
2022-07-28T20:17:24.586Z,100367.00
2022-07-28T20:20:02.385Z,100370.22
2022-07-28T20:22:32.413Z,100373.44
2022-07-28T20:25:01.123Z,100376.75
2022-07-28T20:27:29.796Z,100374.47
2022-07-28T20:29:59.401Z,100377.03
2022-07-28T20:32:28.561Z,100383.53
2022-07-28T20:34:58.318Z,100380.31
2022-07-28T20:37:36.679Z,100379.84
2022-07-28T20:40:12.086Z,100379.75
2022-07-28T20:42:41.195Z,100378.59
2022-07-28T20:45:10.606Z,100382.50
2022-07-28T20:47:40.206Z,100388.00
2022-07-28T20:50:09.505Z,100383.81
2022-07-28T20:52:39.441Z,100389.50
2022-07-28T20:55:11.461Z,100399.09
2022-07-28T20:57:40.349Z,100398.75
2022-07-28T21:00:10.379Z,100395.16
2022-07-28T21:02:41.805Z,100391.19
2022-07-28T21:05:22.816Z,100397.00
2022-07-28T21:08:05.239Z,100401.38
2022-07-28T21:10:38.051Z,100409.25
2022-07-28T21:13:06.800Z,100404.25
2022-07-28T21:15:35.752Z,100402.50
2022-07-28T21:18:04.871Z,100403.28
2022-07-28T21:20:33.771Z,100401.59
2022-07-28T21:23:03.140Z,100398.00
2022-07-28T21:25:32.111Z,100406.19
2022-07-28T21:28:19.275Z,100412.94
2022-07-28T21:30:48.104Z,100422.22
2022-07-28T21:33:22.411Z,100434.84
2022-07-28T21:35:51.993Z,100423.69
2022-07-28T21:38:22.005Z,100433.44
2022-07-28T21:40:51.001Z,100430.28
2022-07-28T21:43:21.423Z,100434.97
2022-07-28T21:45:50.789Z,100438.72
2022-07-28T21:48:23.439Z,100431.06
2022-07-28T21:50:52.944Z,100435.59
2022-07-28T21:53:22.685Z,100430.84
2022-07-28T21:55:53.045Z,100439.16
2022-07-28T21:58:23.476Z,100437.09
2022-07-28T22:00:53.059Z,100434.84
2022-07-28T22:03:22.199Z,100440.44
2022-07-28T22:05:51.147Z,100440.94
2022-07-28T22:08:19.948Z,100434.72
2022-07-28T22:10:48.740Z,100433.28
2022-07-28T22:13:19.077Z,100441.41
2022-07-28T22:15:49.435Z,100437.28
2022-07-28T22:18:18.259Z,100434.81
2022-07-28T22:20:49.194Z,100434.91
2022-07-28T22:23:28.761Z,100429.78
2022-07-28T22:25:58.285Z,100439.78
2022-07-28T22:28:29.658Z,100431.31
2022-07-28T22:31:08.756Z,100437.72
2022-07-28T22:33:39.166Z,100437.84
2022-07-28T22:36:09.423Z,100440.56
2022-07-28T22:38:38.329Z,100440.56
2022-07-28T22:41:07.053Z,100442.38
2022-07-28T22:43:35.994Z,100443.25
2022-07-28T22:46:06.200Z,100445.13
2022-07-28T22:48:34.946Z,100441.72
2022-07-28T22:51:03.600Z,100452.41
2022-07-28T22:53:32.246Z,100450.72
2022-07-28T22:56:01.216Z,100446.34
2022-07-28T22:58:29.819Z,100447.53
2022-07-28T23:00:59.717Z,100451.44
2022-07-28T23:03:31.305Z,100455.31
2022-07-28T23:06:01.014Z,100452.19
2022-07-28T23:08:29.929Z,100459.31
2022-07-28T23:10:59.202Z,100459.38
2022-07-28T23:13:27.772Z,100459.53
2022-07-28T23:15:56.784Z,100457.94
2022-07-28T23:18:25.272Z,100459.88
2022-07-28T23:20:56.368Z,100467.91
2022-07-28T23:23:25.013Z,100468.84
2022-07-28T23:25:53.876Z,100475.97
2022-07-28T23:28:23.033Z,100469.28
2022-07-28T23:30:52.182Z,100456.56
2022-07-28T23:33:56.130Z,100466.31
2022-07-28T23:36:16.841Z,100462.88
2022-07-28T23:38:55.799Z,100462.13
2022-07-28T23:41:25.266Z,100454.34
2022-07-28T23:43:54.140Z,100452.78
2022-07-28T23:46:23.087Z,100450.44
2022-07-28T23:48:52.565Z,100448.88
2022-07-28T23:51:32.022Z,100441.00
2022-07-28T23:54:14.594Z,100439.59
2022-07-28T23:56:58.593Z,100447.53
2022-07-28T23:59:30.464Z,100448.38
